メインページ
METAR-TAF:

METAR-TAF

空港 :

サドバリー, オンタリオ州, カナダ

緯度: 46-37N, 経度: 080-48W, 海抜: 348m

現時点の気象観測

当レポートは36分前の22:00(UTC)に作成
北東の風 6kt、北/北東から東/南東の間で変化する
気温 22°C
湿度 43%
気圧 1014 hPa
視程: 32.2km
高度6800ftの雲は散在している
高度20000ftの千切れ雲あり

METAR: CYSB 232200Z 04006KT 020V110 20SM SCT068 BKN200 22/09 A2995 RMK CU4CI2 SLP147 DENSITY ALT 2300FT

時間: 18:36 (22:36 UTC)

予報

当レポートは2時間58分前の19:38(UTC)に作成
予報は23日の 20時(UTC)から 24日の 08時(UTC)まで有効
の風 10kt
視程: 10km
高度6000ftの千切れ雲あり
23日の 22時(UTC)から 23日の 24時(UTC)まで徐々に
の風 5kt
24日の 0200時(UTC)から
の風 5kt
視程: 10km
高度6000ftの雲はほとんどない

TAF: CYSB 231938Z 2320/2408 35010KT P6SM BKN060 BECMG 2322/2324 35005KT FM240200 01005KT P6SM FEW060 RMK NXT FCST BY 240200Z

4,000以上の空港の気象観測と天気予報(METAR報とTAF報)

利用可能な観測所は地図上に黄色い丸と赤い丸で示す。

丸の上にカーソルを重ねると観測所名を参照できる。

次にクリックすると気象観測と天気予報を参照できる。

マップの切り替え:黒色「×」印の緑ボタンをクリックして拡大、「-」印の緑ボタンをクリックして縮小、緑色の三角印をクリックして隣りの地図に切り替え


METAR-TAF: